createdAt,value
2022-09-27T00:01:09.119Z,9.40
2022-09-27T00:03:36.759Z,9.43
2022-09-27T00:06:09.093Z,9.73
2022-09-27T00:08:37.198Z,9.93
2022-09-27T00:11:06.897Z,12.50
2022-09-27T00:13:34.284Z,11.03
2022-09-27T00:16:05.492Z,12.70
2022-09-27T00:18:33.620Z,11.17
2022-09-27T00:21:08.866Z,11.07
2022-09-27T00:23:36.252Z,11.60
2022-09-27T00:26:03.728Z,10.27
2022-09-27T00:28:31.112Z,11.73
2022-09-27T00:30:59.708Z,11.90
2022-09-27T00:33:27.590Z,11.27
2022-09-27T00:35:54.885Z,13.00
2022-09-27T00:38:21.723Z,11.90
2022-09-27T00:40:48.732Z,12.23
2022-09-27T00:43:24.405Z,12.73
2022-09-27T00:45:59.274Z,11.73
2022-09-27T00:48:31.512Z,13.43
2022-09-27T00:51:02.727Z,11.10
2022-09-27T00:53:39.492Z,10.00
2022-09-27T00:56:10.873Z,7.60
2022-09-27T00:58:43.248Z,5.93
2022-09-27T01:01:14.141Z,7.03
2022-09-27T01:03:44.879Z,5.30
2022-09-27T01:06:12.556Z,6.07
2022-09-27T01:08:39.429Z,5.33
2022-09-27T01:11:28.360Z,7.03
2022-09-27T01:14:19.999Z,8.77
2022-09-27T01:17:09.807Z,7.73
2022-09-27T01:19:39.569Z,8.30
2022-09-27T01:22:18.480Z,10.43
2022-09-27T01:24:58.353Z,9.33
2022-09-27T01:27:51.268Z,9.03
2022-09-27T01:30:25.553Z,9.53
2022-09-27T01:33:14.748Z,7.87
2022-09-27T01:36:06.664Z,8.63
2022-09-27T01:38:57.869Z,8.07
2022-09-27T01:41:33.522Z,10.10
2022-09-27T01:44:09.088Z,7.47
2022-09-27T01:46:45.189Z,9.13
2022-09-27T01:49:24.663Z,8.63
2022-09-27T01:51:56.637Z,11.67
2022-09-27T01:54:30.928Z,8.37
2022-09-27T01:57:00.605Z,12.73
2022-09-27T01:59:32.933Z,11.03
2022-09-27T02:02:07.718Z,9.10
2022-09-27T02:04:39.767Z,10.90
2022-09-27T02:07:15.968Z,8.50
2022-09-27T02:09:54.028Z,7.33
2022-09-27T02:12:28.054Z,9.80
2022-09-27T02:15:13.584Z,7.13
2022-09-27T02:17:44.858Z,8.67
2022-09-27T02:20:24.926Z,6.73
2022-09-27T02:23:02.980Z,6.87
2022-09-27T02:25:43.185Z,8.90
2022-09-27T02:28:45.197Z,9.93
2022-09-27T02:31:12.453Z,9.53
2022-09-27T02:34:03.479Z,5.37
2022-09-27T02:36:30.863Z,8.93
2022-09-27T02:38:57.717Z,3.83
2022-09-27T02:41:24.504Z,6.87
2022-09-27T02:44:02.469Z,7.23
2022-09-27T02:46:50.868Z,7.07
2022-09-27T02:49:47.589Z,5.77
2022-09-27T02:52:52.172Z,6.97
2022-09-27T02:55:37.466Z,7.63
2022-09-27T02:58:37.440Z,4.40
2022-09-27T03:01:24.605Z,7.47
2022-09-27T03:04:04.640Z,6.33
2022-09-27T03:06:32.973Z,6.03
2022-09-27T03:08:59.876Z,7.00
2022-09-27T03:11:26.795Z,9.53
2022-09-27T03:14:07.800Z,7.37
2022-09-27T03:16:35.649Z,9.50
2022-09-27T03:19:02.529Z,8.57
2022-09-27T03:21:29.361Z,9.47
2022-09-27T03:23:56.171Z,7.63
2022-09-27T03:26:22.888Z,10.50
2022-09-27T03:28:49.704Z,6.80
2022-09-27T03:31:16.556Z,9.30
2022-09-27T03:33:43.371Z,11.23
2022-09-27T03:36:10.329Z,8.47
2022-09-27T03:38:37.087Z,8.87
2022-09-27T03:41:04.912Z,5.27
2022-09-27T03:43:31.723Z,12.50
2022-09-27T03:45:59.013Z,8.53
2022-09-27T03:48:28.090Z,7.10
2022-09-27T03:50:55.167Z,8.93
2022-09-27T03:53:22.286Z,8.17
2022-09-27T03:55:49.187Z,7.27
2022-09-27T03:58:16.497Z,7.53
2022-09-27T04:00:44.110Z,10.37
2022-09-27T04:03:12.127Z,6.50
2022-09-27T04:05:39.071Z,7.50
2022-09-27T04:08:11.051Z,7.33
2022-09-27T04:10:38.314Z,10.30
2022-09-27T04:13:05.662Z,10.40
2022-09-27T04:15:32.636Z,6.40
2022-09-27T04:17:59.426Z,5.90
2022-09-27T04:20:26.236Z,9.37
2022-09-27T04:22:53.012Z,8.13
2022-09-27T04:25:20.022Z,9.87
2022-09-27T04:27:48.338Z,8.23
2022-09-27T04:30:16.022Z,8.27
2022-09-27T04:32:44.361Z,4.50
2022-09-27T04:35:33.263Z,5.40
2022-09-27T04:38:00.676Z,6.80
2022-09-27T04:40:27.536Z,5.77
2022-09-27T04:42:54.407Z,4.70
2022-09-27T04:45:21.408Z,4.53
2022-09-27T04:47:50.309Z,5.57
2022-09-27T04:50:18.658Z,9.97
2022-09-27T04:52:49.657Z,7.63
2022-09-27T04:55:16.509Z,8.53
2022-09-27T04:57:43.271Z,6.07
2022-09-27T05:00:10.796Z,5.47
2022-09-27T05:02:37.778Z,6.60
2022-09-27T05:05:06.749Z,5.33
2022-09-27T05:07:35.072Z,6.30
2022-09-27T05:10:01.939Z,4.67
2022-09-27T05:12:28.726Z,4.53
2022-09-27T05:14:55.896Z,6.40
2022-09-27T05:17:23.537Z,7.40
2022-09-27T05:19:50.877Z,6.40
2022-09-27T05:22:17.700Z,5.07
2022-09-27T05:24:44.498Z,6.53
2022-09-27T05:27:18.440Z,6.70
2022-09-27T05:29:45.605Z,5.33
2022-09-27T05:32:13.151Z,4.77
2022-09-27T05:34:39.922Z,5.63
2022-09-27T05:37:06.856Z,3.93
2022-09-27T05:39:33.764Z,5.27
2022-09-27T05:42:00.664Z,7.80
2022-09-27T05:44:27.519Z,7.43
2022-09-27T05:46:54.320Z,8.13
2022-09-27T05:49:21.190Z,4.73
2022-09-27T05:51:47.997Z,5.37
2022-09-27T05:54:14.896Z,4.87
2022-09-27T05:56:41.720Z,5.63
2022-09-27T05:59:08.585Z,5.27
2022-09-27T06:01:36.287Z,7.07
2022-09-27T06:04:04.779Z,7.80
2022-09-27T06:06:34.240Z,7.03
2022-09-27T06:09:01.479Z,6.67
2022-09-27T06:11:28.787Z,6.77
2022-09-27T06:13:56.115Z,4.27
2022-09-27T06:16:22.951Z,3.57
2022-09-27T06:18:49.825Z,5.10
2022-09-27T06:21:16.636Z,10.00
2022-09-27T06:23:43.380Z,5.77
2022-09-27T06:26:10.971Z,4.13
2022-09-27T06:28:37.797Z,5.90
2022-09-27T06:31:11.953Z,5.20
2022-09-27T06:33:38.895Z,6.00
2022-09-27T06:36:07.590Z,7.00
2022-09-27T06:38:34.907Z,5.40
2022-09-27T06:41:03.491Z,4.27
2022-09-27T06:43:31.269Z,6.07
2022-09-27T06:46:05.344Z,5.63
2022-09-27T06:48:32.952Z,4.03
2022-09-27T06:51:00.282Z,4.27
2022-09-27T06:53:29.501Z,5.07
2022-09-27T06:56:01.106Z,6.20
2022-09-27T06:58:47.576Z,4.53
2022-09-27T07:01:14.809Z,2.70
2022-09-27T07:03:43.227Z,4.30
2022-09-27T07:06:22.901Z,7.50
2022-09-27T07:08:53.875Z,3.27
2022-09-27T07:11:23.606Z,2.27
2022-09-27T07:13:51.964Z,4.87
2022-09-27T07:16:19.200Z,4.30
2022-09-27T07:18:49.691Z,5.37
2022-09-27T07:21:16.557Z,3.43
2022-09-27T07:23:43.603Z,2.90
2022-09-27T07:26:11.207Z,3.90
2022-09-27T07:28:39.479Z,2.80
2022-09-27T07:31:06.626Z,3.43
2022-09-27T07:33:33.633Z,6.00
2022-09-27T07:36:00.834Z,4.50
2022-09-27T07:38:27.900Z,6.83
2022-09-27T07:40:54.825Z,3.03
2022-09-27T07:43:21.739Z,4.43
2022-09-27T07:45:48.638Z,6.10
2022-09-27T07:48:16.647Z,6.93
2022-09-27T07:50:43.713Z,3.20
2022-09-27T07:53:13.395Z,5.17
2022-09-27T07:55:41.185Z,3.87
2022-09-27T07:58:11.158Z,6.17
2022-09-27T08:00:40.933Z,7.13
2022-09-27T08:03:16.063Z,5.33
2022-09-27T08:05:44.861Z,5.33
2022-09-27T08:08:11.806Z,9.60
2022-09-27T08:10:42.221Z,5.20
2022-09-27T08:13:09.901Z,3.77
2022-09-27T08:15:38.800Z,3.40
2022-09-27T08:18:07.259Z,4.70
2022-09-27T08:20:34.029Z,5.53
2022-09-27T08:23:01.019Z,4.70
2022-09-27T08:25:28.428Z,3.10
2022-09-27T08:27:57.310Z,4.77
2022-09-27T08:30:24.767Z,5.23
2022-09-27T08:32:59.525Z,5.17
2022-09-27T08:35:29.262Z,9.60
2022-09-27T08:38:00.622Z,4.27
2022-09-27T08:40:39.315Z,7.30
2022-09-27T08:43:22.934Z,6.13
2022-09-27T08:46:19.597Z,6.57
2022-09-27T08:48:51.894Z,5.13
2022-09-27T08:51:30.342Z,4.03
2022-09-27T08:54:11.794Z,7.07
2022-09-27T08:56:38.948Z,3.90
2022-09-27T08:59:21.800Z,5.43
2022-09-27T09:01:50.403Z,5.70
2022-09-27T09:04:39.911Z,6.77
2022-09-27T09:07:25.332Z,2.50
2022-09-27T09:10:52.662Z,6.03
2022-09-27T09:13:45.737Z,5.03
2022-09-27T09:16:29.544Z,3.67
2022-09-27T09:19:19.927Z,4.07
2022-09-27T09:21:49.554Z,5.23
2022-09-27T09:24:19.557Z,5.00
2022-09-27T09:27:25.172Z,3.40
2022-09-27T09:30:13.615Z,6.17
2022-09-27T09:32:40.432Z,4.47
2022-09-27T09:35:13.940Z,2.87
2022-09-27T09:37:46.446Z,6.00
2022-09-27T09:40:28.075Z,4.33
2022-09-27T09:43:24.093Z,5.83
2022-09-27T09:46:02.330Z,2.73
2022-09-27T09:48:39.437Z,6.37
2022-09-27T09:51:10.999Z,3.67
2022-09-27T09:53:50.771Z,7.50
2022-09-27T09:56:23.225Z,3.37
2022-09-27T09:59:25.794Z,2.10
2022-09-27T10:01:56.120Z,4.40
2022-09-27T10:04:28.811Z,3.03
2022-09-27T10:06:59.406Z,2.30
2022-09-27T10:09:28.758Z,5.73
2022-09-27T10:11:55.955Z,7.13
2022-09-27T10:14:23.245Z,3.50
2022-09-27T10:16:59.301Z,5.90
2022-09-27T10:19:30.480Z,6.67
2022-09-27T10:22:28.621Z,3.70
2022-09-27T10:24:57.544Z,2.00
2022-09-27T10:27:27.969Z,2.10
2022-09-27T10:29:59.635Z,5.87
2022-09-27T10:32:33.430Z,2.70
2022-09-27T10:35:23.559Z,2.93
2022-09-27T10:37:51.296Z,2.50
2022-09-27T10:40:36.284Z,3.60
2022-09-27T10:43:03.370Z,2.23
2022-09-27T10:45:31.489Z,0.97
2022-09-27T10:48:00.730Z,1.13
2022-09-27T10:50:50.284Z,1.30
2022-09-27T10:53:21.762Z,0.70
2022-09-27T10:55:51.185Z,2.60
2022-09-27T10:58:28.348Z,3.10
2022-09-27T11:01:04.209Z,2.27
2022-09-27T11:03:34.161Z,2.27
2022-09-27T11:06:18.099Z,1.93
2022-09-27T11:08:48.762Z,6.90
2022-09-27T11:11:16.392Z,5.30
2022-09-27T11:13:57.511Z,3.70
2022-09-27T11:16:52.117Z,2.60
2022-09-27T11:19:40.944Z,2.83
2022-09-27T11:22:24.791Z,3.23
2022-09-27T11:25:13.085Z,3.00
2022-09-27T11:28:16.861Z,4.20
2022-09-27T11:30:52.870Z,5.00
2022-09-27T11:33:44.259Z,2.53
2022-09-27T11:36:13.822Z,2.13
2022-09-27T11:39:07.560Z,1.63
2022-09-27T11:42:02.740Z,2.77
2022-09-27T11:45:34.240Z,2.70
2022-09-27T11:48:12.929Z,2.30
2022-09-27T11:51:05.268Z,2.47
2022-09-27T11:54:10.454Z,1.40
2022-09-27T11:57:28.786Z,1.77
2022-09-27T12:00:10.556Z,1.80
2022-09-27T12:02:59.828Z,2.70
2022-09-27T12:05:58.780Z,1.97
2022-09-27T12:08:51.348Z,1.40
2022-09-27T12:11:42.839Z,2.80
2022-09-27T12:14:39.087Z,1.57
2022-09-27T12:17:11.597Z,1.07
2022-09-27T12:19:42.818Z,2.13
2022-09-27T12:22:14.447Z,2.30
2022-09-27T12:24:42.370Z,1.67
2022-09-27T12:27:17.053Z,3.73
2022-09-27T12:29:45.249Z,1.77
2022-09-27T12:32:22.472Z,1.57
2022-09-27T12:35:02.257Z,2.17
2022-09-27T12:37:35.345Z,3.30
2022-09-27T12:40:08.170Z,2.87
2022-09-27T12:42:50.414Z,1.63
2022-09-27T12:45:24.101Z,2.27
2022-09-27T12:48:32.425Z,3.70
2022-09-27T12:51:12.297Z,1.23
2022-09-27T12:54:13.514Z,1.40
2022-09-27T12:57:11.132Z,0.73
2022-09-27T12:59:50.041Z,1.83
2022-09-27T13:03:03.850Z,2.83
2022-09-27T13:05:56.995Z,1.77
2022-09-27T13:08:55.524Z,2.10
2022-09-27T13:11:29.273Z,0.87
2022-09-27T13:14:01.720Z,1.23
2022-09-27T13:16:28.908Z,1.70
2022-09-27T13:19:01.812Z,2.97
2022-09-27T13:21:47.440Z,2.93
2022-09-27T13:24:47.324Z,2.37
2022-09-27T13:27:25.725Z,2.13
2022-09-27T13:29:52.999Z,2.23
2022-09-27T13:32:26.233Z,1.67
2022-09-27T13:34:54.497Z,1.13
2022-09-27T13:38:02.672Z,2.80
2022-09-27T13:40:35.919Z,1.17
2022-09-27T13:43:10.564Z,0.80
2022-09-27T13:45:41.734Z,0.70
2022-09-27T13:48:24.421Z,1.40
2022-09-27T13:51:26.457Z,2.63
2022-09-27T13:54:10.089Z,1.70
2022-09-27T13:56:38.269Z,1.23
2022-09-27T13:59:12.344Z,1.40
2022-09-27T14:02:07.253Z,1.83
2022-09-27T14:04:50.035Z,1.57
2022-09-27T14:07:20.386Z,1.30
2022-09-27T14:09:52.815Z,2.80
2022-09-27T14:12:23.455Z,2.00
2022-09-27T14:14:51.678Z,1.17
2022-09-27T14:17:18.729Z,2.83
2022-09-27T14:19:46.393Z,1.83
2022-09-27T14:22:18.540Z,1.90
2022-09-27T14:24:53.873Z,1.70
2022-09-27T14:27:28.426Z,3.53
2022-09-27T14:30:03.926Z,2.03
2022-09-27T14:32:33.963Z,2.37
2022-09-27T14:35:33.082Z,3.10
2022-09-27T14:38:15.806Z,2.00
2022-09-27T14:40:54.305Z,3.00
2022-09-27T14:43:22.534Z,1.67
2022-09-27T14:45:52.755Z,1.57
2022-09-27T14:48:23.725Z,1.40
2022-09-27T14:51:20.937Z,1.67
2022-09-27T14:53:57.096Z,2.50
2022-09-27T14:56:33.565Z,2.97
2022-09-27T14:59:30.980Z,4.13
2022-09-27T15:02:03.474Z,1.40
2022-09-27T15:04:32.272Z,1.10
2022-09-27T15:07:02.198Z,1.43
2022-09-27T15:09:33.123Z,2.53
2022-09-27T15:12:01.215Z,1.30
2022-09-27T15:14:33.097Z,2.07
2022-09-27T15:17:05.999Z,1.23
2022-09-27T15:19:34.620Z,2.30
2022-09-27T15:22:34.847Z,1.83
2022-09-27T15:25:34.449Z,4.53
2022-09-27T15:28:18.383Z,1.70
2022-09-27T15:30:58.962Z,2.17
2022-09-27T15:33:34.708Z,2.20
2022-09-27T15:36:13.185Z,2.17
2022-09-27T15:38:47.492Z,2.40
2022-09-27T15:41:17.028Z,1.47
2022-09-27T15:43:52.483Z,2.00
2022-09-27T15:46:22.592Z,2.70
2022-09-27T15:49:20.748Z,2.00
2022-09-27T15:51:52.562Z,1.57
2022-09-27T15:54:21.025Z,1.70
2022-09-27T15:56:55.594Z,27.07
2022-09-27T15:59:27.966Z,1.67
2022-09-27T16:02:03.033Z,2.20
2022-09-27T16:04:32.616Z,5.60
2022-09-27T16:07:02.463Z,3.47
2022-09-27T16:09:29.672Z,2.23
2022-09-27T16:11:56.685Z,2.50
2022-09-27T16:14:23.505Z,3.67
2022-09-27T16:16:53.023Z,2.53
2022-09-27T16:19:20.040Z,4.53
2022-09-27T16:21:48.514Z,2.53
2022-09-27T16:24:17.220Z,2.87
2022-09-27T16:26:44.393Z,3.03
2022-09-27T16:29:14.041Z,3.03
2022-09-27T16:31:41.856Z,2.67
2022-09-27T16:34:10.068Z,7.23
2022-09-27T16:36:37.515Z,3.50
2022-09-27T16:39:05.917Z,3.87
2022-09-27T16:41:35.792Z,4.73
2022-09-27T16:44:10.974Z,2.57
2022-09-27T16:46:47.455Z,5.17
2022-09-27T16:49:33.335Z,2.97
2022-09-27T16:52:00.578Z,4.23
2022-09-27T16:54:31.436Z,6.47
2022-09-27T16:56:59.492Z,5.60
2022-09-27T16:59:27.159Z,4.13
2022-09-27T17:01:58.131Z,4.60
2022-09-27T17:04:28.133Z,6.20
2022-09-27T17:06:56.269Z,3.27
2022-09-27T17:09:23.553Z,5.17
2022-09-27T17:11:50.930Z,5.20
2022-09-27T17:14:18.686Z,4.90
2022-09-27T17:16:47.029Z,3.77
2022-09-27T17:19:15.062Z,4.90
2022-09-27T17:21:43.521Z,2.80
2022-09-27T17:24:11.233Z,3.30
2022-09-27T17:26:38.430Z,2.97
2022-09-27T17:29:05.347Z,5.43
2022-09-27T17:31:34.807Z,4.17
2022-09-27T17:34:02.654Z,3.83
2022-09-27T17:36:37.429Z,4.50
2022-09-27T17:39:05.426Z,3.57
2022-09-27T17:41:39.641Z,4.43
2022-09-27T17:44:07.400Z,7.37
2022-09-27T17:46:36.776Z,5.93
2022-09-27T17:49:22.704Z,4.00
2022-09-27T17:51:52.133Z,6.03
2022-09-27T17:54:20.640Z,3.40
2022-09-27T17:56:48.222Z,2.67
2022-09-27T17:59:16.072Z,4.40
2022-09-27T18:01:44.542Z,5.20
2022-09-27T18:04:14.693Z,3.97
2022-09-27T18:06:44.100Z,4.77
2022-09-27T18:09:12.978Z,4.57
2022-09-27T18:11:41.108Z,2.80
2022-09-27T18:14:10.204Z,4.47
2022-09-27T18:16:41.034Z,4.83
2022-09-27T18:19:10.590Z,5.20
2022-09-27T18:21:37.695Z,4.77
2022-09-27T18:24:06.126Z,6.23
2022-09-27T18:26:36.494Z,4.97
2022-09-27T18:29:07.903Z,3.87
2022-09-27T18:31:34.959Z,4.27
2022-09-27T18:34:03.060Z,4.00
2022-09-27T18:36:30.054Z,3.57
2022-09-27T18:38:58.807Z,4.80
2022-09-27T18:41:28.599Z,3.70
2022-09-27T18:43:58.861Z,4.70
2022-09-27T18:46:35.519Z,2.80
2022-09-27T18:49:10.422Z,3.97
2022-09-27T18:51:41.158Z,2.43
2022-09-27T18:54:18.340Z,3.80
2022-09-27T18:56:45.977Z,5.20
2022-09-27T18:59:13.886Z,3.83
2022-09-27T19:01:45.025Z,2.23
2022-09-27T19:04:19.245Z,3.33
2022-09-27T19:06:48.436Z,7.13
2022-09-27T19:09:15.281Z,3.13
2022-09-27T19:11:42.199Z,8.13
2022-09-27T19:14:16.658Z,4.40
2022-09-27T19:16:44.843Z,3.87
2022-09-27T19:19:11.664Z,4.80
2022-09-27T19:21:38.533Z,4.87
2022-09-27T19:24:05.453Z,6.67
2022-09-27T19:26:32.252Z,6.53
2022-09-27T19:28:59.236Z,5.33
2022-09-27T19:31:27.229Z,6.17
2022-09-27T19:33:59.732Z,4.07
2022-09-27T19:36:28.189Z,6.07
2022-09-27T19:38:58.402Z,4.70
2022-09-27T19:41:26.184Z,3.83
2022-09-27T19:43:54.127Z,4.43
2022-09-27T19:46:22.300Z,4.40
2022-09-27T19:48:50.389Z,4.07
2022-09-27T19:51:22.700Z,4.60
2022-09-27T19:53:51.180Z,4.93
2022-09-27T19:56:19.125Z,3.40
2022-09-27T19:58:46.109Z,3.77
2022-09-27T20:01:16.007Z,3.97
2022-09-27T20:03:44.623Z,3.03
2022-09-27T20:06:15.059Z,5.20
2022-09-27T20:08:43.217Z,4.17
2022-09-27T20:11:12.644Z,3.30
2022-09-27T20:13:40.428Z,5.03
2022-09-27T20:16:10.099Z,3.43
2022-09-27T20:18:47.324Z,5.47
2022-09-27T20:21:15.245Z,5.53
2022-09-27T20:23:43.553Z,4.40
2022-09-27T20:26:16.495Z,4.03
2022-09-27T20:28:45.649Z,6.37
2022-09-27T20:31:14.847Z,4.57
2022-09-27T20:33:42.113Z,6.23
2022-09-27T20:36:31.210Z,5.50
2022-09-27T20:39:03.838Z,6.40
2022-09-27T20:41:42.219Z,8.13
2022-09-27T20:44:17.265Z,5.70
2022-09-27T20:46:45.112Z,7.20
2022-09-27T20:49:17.042Z,6.40
2022-09-27T20:51:48.316Z,8.27
2022-09-27T20:54:15.472Z,6.63
2022-09-27T20:56:47.286Z,6.13
2022-09-27T20:59:17.763Z,11.83
2022-09-27T21:01:46.903Z,6.47
2022-09-27T21:04:17.215Z,7.60
2022-09-27T21:06:45.598Z,10.43
2022-09-27T21:09:20.342Z,7.10
2022-09-27T21:11:48.748Z,8.00
2022-09-27T21:14:15.972Z,6.80
2022-09-27T21:16:43.103Z,7.83
2022-09-27T21:19:10.698Z,5.97
2022-09-27T21:21:37.532Z,10.03
2022-09-27T21:24:04.687Z,8.60
2022-09-27T21:26:33.605Z,7.57
2022-09-27T21:29:04.884Z,8.17
2022-09-27T21:31:32.528Z,7.40
2022-09-27T21:34:03.374Z,9.83
2022-09-27T21:36:33.075Z,8.63
2022-09-27T21:39:00.696Z,8.13
2022-09-27T21:41:28.191Z,7.97
2022-09-27T21:43:55.475Z,8.37
2022-09-27T21:46:24.781Z,7.23
2022-09-27T21:49:04.516Z,8.60
2022-09-27T21:51:38.149Z,8.03
2022-09-27T21:54:07.401Z,8.67
2022-09-27T21:56:37.709Z,9.37
2022-09-27T21:59:06.289Z,7.97
2022-09-27T22:01:34.306Z,8.13
2022-09-27T22:04:02.458Z,10.20
2022-09-27T22:06:33.668Z,6.50
2022-09-27T22:09:01.439Z,8.13
2022-09-27T22:11:31.682Z,7.90
2022-09-27T22:13:59.305Z,9.70
2022-09-27T22:16:27.476Z,5.33
2022-09-27T22:18:56.201Z,9.13
2022-09-27T22:21:31.898Z,5.30
2022-09-27T22:24:06.534Z,10.10
2022-09-27T22:26:37.090Z,4.50
2022-09-27T22:29:03.868Z,11.53
2022-09-27T22:31:30.717Z,4.97
2022-09-27T22:34:01.330Z,6.27
2022-09-27T22:36:28.739Z,7.77
2022-09-27T22:38:55.971Z,6.93
2022-09-27T22:41:23.812Z,7.77
2022-09-27T22:43:51.804Z,5.20
2022-09-27T22:46:19.504Z,5.67
2022-09-27T22:48:46.497Z,5.80
2022-09-27T22:51:13.311Z,10.07
2022-09-27T22:53:40.208Z,7.43
2022-09-27T22:56:12.534Z,9.23
2022-09-27T22:58:39.235Z,8.33
2022-09-27T23:01:09.666Z,7.70
2022-09-27T23:03:37.150Z,7.07
2022-09-27T23:06:04.780Z,5.93
2022-09-27T23:08:36.391Z,8.50
2022-09-27T23:11:14.530Z,11.80
2022-09-27T23:13:43.776Z,7.87
2022-09-27T23:16:13.705Z,10.83
2022-09-27T23:18:40.859Z,6.80
2022-09-27T23:21:10.259Z,9.53
2022-09-27T23:23:41.933Z,9.87
2022-09-27T23:26:11.078Z,12.10
2022-09-27T23:28:38.621Z,8.03
2022-09-27T23:31:08.378Z,11.23
2022-09-27T23:33:40.560Z,12.07
2022-09-27T23:36:10.535Z,8.40
2022-09-27T23:38:40.165Z,9.90
2022-09-27T23:41:08.198Z,10.57
2022-09-27T23:43:36.219Z,8.83
2022-09-27T23:46:05.443Z,13.27
2022-09-27T23:48:34.643Z,12.10
2022-09-27T23:51:02.151Z,9.53
2022-09-27T23:53:28.918Z,8.03
2022-09-27T23:55:59.622Z,7.87
2022-09-27T23:58:26.358Z,9.43
